sensor_id;sensor_type;location;lat;lon;timestamp;pressure;altitude;pressure_sealevel;temperature;humidity
15050;BME280;7622;42.724;23.250;2023-12-20T00:02:14;94953.16;;;0.79;100.00
15050;BME280;7622;42.724;23.250;2023-12-20T00:04:40;94963.31;;;0.81;100.00
15050;BME280;7622;42.724;23.250;2023-12-20T00:07:07;94956.09;;;0.72;100.00
15050;BME280;7622;42.724;23.250;2023-12-20T00:09:34;94951.09;;;0.86;100.00
15050;BME280;7622;42.724;23.250;2023-12-20T00:12:00;94950.53;;;0.81;100.00
15050;BME280;7622;42.724;23.250;2023-12-20T00:14:28;94947.28;;;0.77;100.00
15050;BME280;7622;42.724;23.250;2023-12-20T00:16:55;94941.72;;;0.87;100.00
15050;BME280;7622;42.724;23.250;2023-12-20T00:19:22;94944.66;;;0.79;100.00
15050;BME280;7622;42.724;23.250;2023-12-20T00:21:49;94937.25;;;0.90;100.00
15050;BME280;7622;42.724;23.250;2023-12-20T00:24:16;94930.81;;;0.83;100.00
15050;BME280;7622;42.724;23.250;2023-12-20T00:26:43;94925.75;;;0.49;100.00
15050;BME280;7622;42.724;23.250;2023-12-20T00:29:09;94918.13;;;0.31;100.00
15050;BME280;7622;42.724;23.250;2023-12-20T00:31:37;94907.09;;;0.64;100.00
15050;BME280;7622;42.724;23.250;2023-12-20T00:34:04;94826.97;;;-0.01;100.00
15050;BME280;7622;42.724;23.250;2023-12-20T00:36:31;94908.78;;;0.48;100.00
15050;BME280;7622;42.724;23.250;2023-12-20T00:38:58;94916.84;;;0.40;100.00
15050;BME280;7622;42.724;23.250;2023-12-20T00:41:24;94911.16;;;0.51;100.00
15050;BME280;7622;42.724;23.250;2023-12-20T00:43:51;94910.53;;;0.63;100.00
15050;BME280;7622;42.724;23.250;2023-12-20T00:46:18;94912.38;;;0.61;100.00
15050;BME280;7622;42.724;23.250;2023-12-20T00:48:46;94905.72;;;0.74;100.00
15050;BME280;7622;42.724;23.250;2023-12-20T00:51:13;94898.59;;;0.63;100.00
15050;BME280;7622;42.724;23.250;2023-12-20T00:53:39;94908.31;;;0.57;100.00
15050;BME280;7622;42.724;23.250;2023-12-20T00:56:06;94904.22;;;0.70;100.00
15050;BME280;7622;42.724;23.250;2023-12-20T00:58:33;94890.22;;;0.77;100.00
15050;BME280;7622;42.724;23.250;2023-12-20T01:01:00;94897.41;;;0.86;100.00
15050;BME280;7622;42.724;23.250;2023-12-20T01:03:27;94890.31;;;0.75;100.00
15050;BME280;7622;42.724;23.250;2023-12-20T01:05:55;94889.97;;;0.49;100.00
15050;BME280;7622;42.724;23.250;2023-12-20T01:08:22;94885.94;;;0.45;100.00
15050;BME280;7622;42.724;23.250;2023-12-20T01:10:49;94877.13;;;0.50;100.00
15050;BME280;7622;42.724;23.250;2023-12-20T01:13:16;94879.66;;;0.67;100.00
15050;BME280;7622;42.724;23.250;2023-12-20T01:15:42;94875.69;;;0.62;100.00
15050;BME280;7622;42.724;23.250;2023-12-20T01:18:09;94875.28;;;0.36;100.00
15050;BME280;7622;42.724;23.250;2023-12-20T01:20:36;94868.09;;;0.10;100.00
15050;BME280;7622;42.724;23.250;2023-12-20T01:23:04;94873.94;;;0.29;100.00
15050;BME280;7622;42.724;23.250;2023-12-20T01:25:30;94863.78;;;0.28;100.00
15050;BME280;7622;42.724;23.250;2023-12-20T01:27:57;94866.97;;;0.33;100.00
15050;BME280;7622;42.724;23.250;2023-12-20T01:30:24;94865.06;;;0.36;100.00
15050;BME280;7622;42.724;23.250;2023-12-20T01:32:51;94853.81;;;0.41;100.00
15050;BME280;7622;42.724;23.250;2023-12-20T01:35:17;94851.25;;;0.23;100.00
15050;BME280;7622;42.724;23.250;2023-12-20T01:37:44;94844.56;;;0.21;100.00
15050;BME280;7622;42.724;23.250;2023-12-20T01:40:12;94851.00;;;0.28;100.00
15050;BME280;7622;42.724;23.250;2023-12-20T01:42:40;94842.25;;;0.33;100.00
15050;BME280;7622;42.724;23.250;2023-12-20T01:45:07;94840.09;;;0.42;100.00
15050;BME280;7622;42.724;23.250;2023-12-20T01:47:35;94830.94;;;0.37;100.00
15050;BME280;7622;42.724;23.250;2023-12-20T01:50:02;94827.81;;;0.32;100.00
15050;BME280;7622;42.724;23.250;2023-12-20T01:52:30;94834.22;;;0.24;100.00
15050;BME280;7622;42.724;23.250;2023-12-20T01:54:59;94826.19;;;0.14;100.00
15050;BME280;7622;42.724;23.250;2023-12-20T01:57:30;94826.63;;;0.22;100.00
15050;BME280;7622;42.724;23.250;2023-12-20T01:59:57;94816.09;;;0.28;100.00
15050;BME280;7622;42.724;23.250;2023-12-20T02:02:26;94819.03;;;0.21;100.00
15050;BME280;7622;42.724;23.250;2023-12-20T02:04:53;94803.88;;;0.18;100.00
15050;BME280;7622;42.724;23.250;2023-12-20T02:07:21;94797.31;;;0.29;100.00
15050;BME280;7622;42.724;23.250;2023-12-20T02:09:48;94802.91;;;0.20;100.00
15050;BME280;7622;42.724;23.250;2023-12-20T02:12:16;94809.94;;;0.15;100.00
15050;BME280;7622;42.724;23.250;2023-12-20T02:14:44;94806.25;;;-0.12;100.00
15050;BME280;7622;42.724;23.250;2023-12-20T02:17:10;94806.81;;;0.10;100.00
15050;BME280;7622;42.724;23.250;2023-12-20T02:19:37;94804.00;;;-0.01;100.00
15050;BME280;7622;42.724;23.250;2023-12-20T02:22:09;94755.53;;;-0.53;100.00
15050;BME280;7622;42.724;23.250;2023-12-20T02:24:36;94757.31;;;-0.37;100.00
15050;BME280;7622;42.724;23.250;2023-12-20T02:27:05;94795.06;;;-0.27;100.00
15050;BME280;7622;42.724;23.250;2023-12-20T02:29:33;94794.91;;;-0.24;100.00
15050;BME280;7622;42.724;23.250;2023-12-20T02:32:00;94785.84;;;-0.29;100.00
15050;BME280;7622;42.724;23.250;2023-12-20T02:34:26;94785.78;;;-0.28;100.00
15050;BME280;7622;42.724;23.250;2023-12-20T02:36:53;94786.81;;;-0.49;100.00
15050;BME280;7622;42.724;23.250;2023-12-20T02:39:23;94778.34;;;-0.32;100.00
15050;BME280;7622;42.724;23.250;2023-12-20T02:41:53;94771.66;;;-0.35;100.00
15050;BME280;7622;42.724;23.250;2023-12-20T02:44:21;94769.91;;;-0.34;100.00
15050;BME280;7622;42.724;23.250;2023-12-20T02:46:48;94773.81;;;-0.27;100.00
15050;BME280;7622;42.724;23.250;2023-12-20T02:49:15;94774.88;;;-0.31;100.00
15050;BME280;7622;42.724;23.250;2023-12-20T02:51:41;94773.59;;;-0.40;100.00
15050;BME280;7622;42.724;23.250;2023-12-20T02:54:08;94771.88;;;-0.40;100.00
15050;BME280;7622;42.724;23.250;2023-12-20T02:56:36;94775.50;;;-0.44;100.00
15050;BME280;7622;42.724;23.250;2023-12-20T02:59:03;94776.31;;;-0.43;100.00
15050;BME280;7622;42.724;23.250;2023-12-20T03:01:31;94772.19;;;-0.46;100.00
15050;BME280;7622;42.724;23.250;2023-12-20T03:03:58;94767.38;;;-0.69;100.00
15050;BME280;7622;42.724;23.250;2023-12-20T03:06:24;94773.97;;;-0.48;100.00
15050;BME280;7622;42.724;23.250;2023-12-20T03:08:51;94736.34;;;-0.77;100.00
15050;BME280;7622;42.724;23.250;2023-12-20T03:11:18;94775.38;;;-0.94;100.00
15050;BME280;7622;42.724;23.250;2023-12-20T03:13:46;94774.13;;;-0.85;100.00
15050;BME280;7622;42.724;23.250;2023-12-20T03:16:13;94767.38;;;-0.69;100.00
15050;BME280;7622;42.724;23.250;2023-12-20T03:18:41;94759.97;;;-0.56;100.00
15050;BME280;7622;42.724;23.250;2023-12-20T03:21:08;94770.38;;;-0.78;100.00
15050;BME280;7622;42.724;23.250;2023-12-20T03:23:34;94767.16;;;-0.64;100.00
15050;BME280;7622;42.724;23.250;2023-12-20T03:26:01;94762.78;;;-0.80;100.00
15050;BME280;7622;42.724;23.250;2023-12-20T03:28:29;94751.75;;;-0.80;100.00
15050;BME280;7622;42.724;23.250;2023-12-20T03:30:57;94756.44;;;-0.71;100.00
15050;BME280;7622;42.724;23.250;2023-12-20T03:33:24;94761.50;;;-1.05;100.00
15050;BME280;7622;42.724;23.250;2023-12-20T03:35:51;94756.16;;;-1.01;100.00
15050;BME280;7622;42.724;23.250;2023-12-20T03:38:17;94749.47;;;-1.03;100.00
15050;BME280;7622;42.724;23.250;2023-12-20T03:40:44;94760.13;;;-0.95;100.00
15050;BME280;7622;42.724;23.250;2023-12-20T03:43:11;94748.69;;;-1.23;100.00
15050;BME280;7622;42.724;23.250;2023-12-20T03:45:37;94749.59;;;-1.24;100.00
15050;BME280;7622;42.724;23.250;2023-12-20T03:48:06;94743.75;;;-1.26;100.00
15050;BME280;7622;42.724;23.250;2023-12-20T03:50:34;94736.59;;;-1.36;100.00
15050;BME280;7622;42.724;23.250;2023-12-20T03:53:00;94754.72;;;-1.06;100.00
15050;BME280;7622;42.724;23.250;2023-12-20T03:55:27;94748.34;;;-1.15;100.00
15050;BME280;7622;42.724;23.250;2023-12-20T03:57:54;94751.84;;;-1.17;100.00
15050;BME280;7622;42.724;23.250;2023-12-20T04:00:21;94744.44;;;-1.22;100.00
15050;BME280;7622;42.724;23.250;2023-12-20T04:02:47;94741.28;;;-1.27;100.00
15050;BME280;7622;42.724;23.250;2023-12-20T04:05:16;94733.56;;;-1.26;100.00
15050;BME280;7622;42.724;23.250;2023-12-20T04:07:42;94734.47;;;-1.09;100.00
15050;BME280;7622;42.724;23.250;2023-12-20T04:10:09;94738.84;;;-1.11;100.00
15050;BME280;7622;42.724;23.250;2023-12-20T04:12:36;94718.63;;;-0.97;100.00
15050;BME280;7622;42.724;23.250;2023-12-20T04:15:03;94721.75;;;-1.09;100.00
15050;BME280;7622;42.724;23.250;2023-12-20T04:17:34;94721.69;;;-1.08;100.00
15050;BME280;7622;42.724;23.250;2023-12-20T04:20:01;94728.41;;;-1.07;100.00
15050;BME280;7622;42.724;23.250;2023-12-20T04:22:29;94712.31;;;-1.07;100.00
15050;BME280;7622;42.724;23.250;2023-12-20T04:24:56;94725.16;;;-1.28;100.00
15050;BME280;7622;42.724;23.250;2023-12-20T04:27:23;94723.63;;;-1.13;100.00
15050;BME280;7622;42.724;23.250;2023-12-20T04:29:49;94714.38;;;-1.15;100.00
15050;BME280;7622;42.724;23.250;2023-12-20T04:32:16;94717.81;;;-1.16;100.00
15050;BME280;7622;42.724;23.250;2023-12-20T04:34:43;94714.25;;;-1.12;100.00
15050;BME280;7622;42.724;23.250;2023-12-20T04:37:10;94712.81;;;-1.18;100.00
15050;BME280;7622;42.724;23.250;2023-12-20T04:39:39;94712.44;;;-1.10;100.00
15050;BME280;7622;42.724;23.250;2023-12-20T04:42:06;94709.69;;;-1.42;100.00
15050;BME280;7622;42.724;23.250;2023-12-20T04:44:33;94694.41;;;-1.42;100.00
15050;BME280;7622;42.724;23.250;2023-12-20T04:47:00;94709.41;;;-1.36;100.00
15050;BME280;7622;42.724;23.250;2023-12-20T04:49:27;94709.69;;;-1.42;100.00
15050;BME280;7622;42.724;23.250;2023-12-20T04:51:53;94703.09;;;-1.46;100.00
15050;BME280;7622;42.724;23.250;2023-12-20T04:54:21;94711.56;;;-1.45;100.00
15050;BME280;7622;42.724;23.250;2023-12-20T04:56:49;94693.03;;;-1.49;100.00
15050;BME280;7622;42.724;23.250;2023-12-20T04:59:16;94695.28;;;-1.60;100.00
15050;BME280;7622;42.724;23.250;2023-12-20T05:01:42;94697.53;;;-1.73;100.00
15050;BME280;7622;42.724;23.250;2023-12-20T05:04:09;94698.44;;;-1.55;100.00
15050;BME280;7622;42.724;23.250;2023-12-20T05:06:36;94695.19;;;-1.59;100.00
15050;BME280;7622;42.724;23.250;2023-12-20T05:09:03;94688.72;;;-1.66;100.00
15050;BME280;7622;42.724;23.250;2023-12-20T05:11:29;94685.00;;;-1.59;100.00
15050;BME280;7622;42.724;23.250;2023-12-20T05:13:58;94693.19;;;-1.71;100.00
15050;BME280;7622;42.724;23.250;2023-12-20T05:16:24;94683.88;;;-1.89;100.00
15050;BME280;7622;42.724;23.250;2023-12-20T05:18:52;94693.47;;;-1.77;100.00
15050;BME280;7622;42.724;23.250;2023-12-20T05:21:23;94690.13;;;-1.96;100.00
15050;BME280;7622;42.724;23.250;2023-12-20T05:23:52;94681.31;;;-2.08;100.00
15050;BME280;7622;42.724;23.250;2023-12-20T05:26:19;94679.53;;;-2.06;100.00
15050;BME280;7622;42.724;23.250;2023-12-20T05:28:45;94659.44;;;-2.12;100.00
15050;BME280;7622;42.724;23.250;2023-12-20T05:31:13;94683.91;;;-2.28;100.00
15050;BME280;7622;42.724;23.250;2023-12-20T05:33:40;94676.69;;;-2.00;100.00
15050;BME280;7622;42.724;23.250;2023-12-20T05:36:07;94679.94;;;-1.77;100.00
15050;BME280;7622;42.724;23.250;2023-12-20T05:38:36;94673.13;;;-1.95;100.00
15050;BME280;7622;42.724;23.250;2023-12-20T05:41:03;94669.44;;;-1.88;100.00
15050;BME280;7622;42.724;23.250;2023-12-20T05:43:30;94649.97;;;-1.89;100.00
15050;BME280;7622;42.724;23.250;2023-12-20T05:45:56;94666.13;;;-1.90;100.00
15050;BME280;7622;42.724;23.250;2023-12-20T05:48:25;94663.84;;;-1.96;100.00
15050;BME280;7622;42.724;23.250;2023-12-20T05:50:51;94663.56;;;-1.90;100.00
15050;BME280;7622;42.724;23.250;2023-12-20T05:53:18;94665.00;;;-1.85;100.00
15050;BME280;7622;42.724;23.250;2023-12-20T05:55:45;94660.34;;;-1.75;100.00
15050;BME280;7622;42.724;23.250;2023-12-20T05:58:11;94660.56;;;-1.80;100.00
15050;BME280;7622;42.724;23.250;2023-12-20T06:00:38;94659.25;;;-1.88;100.00
15050;BME280;7622;42.724;23.250;2023-12-20T06:03:05;94649.44;;;-1.79;100.00
15050;BME280;7622;42.724;23.250;2023-12-20T06:05:33;94649.25;;;-1.74;100.00
15050;BME280;7622;42.724;23.250;2023-12-20T06:08:00;94654.06;;;-1.68;100.00
15050;BME280;7622;42.724;23.250;2023-12-20T06:10:28;94641.41;;;-1.70;100.00
15050;BME280;7622;42.724;23.250;2023-12-20T06:12:55;94657.38;;;-1.66;100.00
15050;BME280;7622;42.724;23.250;2023-12-20T06:15:24;94660.34;;;-1.58;100.00
15050;BME280;7622;42.724;23.250;2023-12-20T06:17:50;94657.09;;;-1.60;100.00
15050;BME280;7622;42.724;23.250;2023-12-20T06:20:17;94661.13;;;-1.56;100.00
15050;BME280;7622;42.724;23.250;2023-12-20T06:22:45;94656.84;;;-1.02;100.00
15050;BME280;7622;42.724;23.250;2023-12-20T06:25:12;94647.00;;;-1.10;100.00
15050;BME280;7622;42.724;23.250;2023-12-20T06:27:39;94658.88;;;-1.62;100.00
15050;BME280;7622;42.724;23.250;2023-12-20T06:30:07;94657.06;;;-2.15;100.00
15050;BME280;7622;42.724;23.250;2023-12-20T06:32:35;94655.88;;;-2.08;100.00
15050;BME280;7622;42.724;23.250;2023-12-20T06:35:03;94656.41;;;-2.20;100.00
15050;BME280;7622;42.724;23.250;2023-12-20T06:37:31;94652.56;;;-2.10;100.00
15050;BME280;7622;42.724;23.250;2023-12-20T06:39:59;94647.50;;;-2.10;100.00
15050;BME280;7622;42.724;23.250;2023-12-20T06:42:26;94650.91;;;-2.29;100.00
15050;BME280;7622;42.724;23.250;2023-12-20T06:44:52;94646.72;;;-2.30;100.00
15050;BME280;7622;42.724;23.250;2023-12-20T06:47:19;94640.38;;;-1.84;100.00
15050;BME280;7622;42.724;23.250;2023-12-20T06:49:46;94639.28;;;-1.79;100.00
15050;BME280;7622;42.724;23.250;2023-12-20T06:52:13;94643.31;;;-1.56;100.00
15050;BME280;7622;42.724;23.250;2023-12-20T06:54:40;94630.31;;;-1.69;100.00
15050;BME280;7622;42.724;23.250;2023-12-20T06:57:08;94631.50;;;-1.76;100.00
15050;BME280;7622;42.724;23.250;2023-12-20T06:59:38;94627.44;;;-1.61;100.00
15050;BME280;7622;42.724;23.250;2023-12-20T07:02:05;94622.69;;;-1.51;100.00
15050;BME280;7622;42.724;23.250;2023-12-20T07:04:32;94621.97;;;-1.36;100.00
15050;BME280;7622;42.724;23.250;2023-12-20T07:06:58;94619.44;;;-1.36;100.00
15050;BME280;7622;42.724;23.250;2023-12-20T07:09:25;94626.72;;;-1.29;100.00
15050;BME280;7622;42.724;23.250;2023-12-20T07:11:53;94629.78;;;-1.39;100.00
15050;BME280;7622;42.724;23.250;2023-12-20T07:14:21;94619.53;;;-1.21;100.00
15050;BME280;7622;42.724;23.250;2023-12-20T07:16:48;94623.94;;;-1.07;100.00
15050;BME280;7622;42.724;23.250;2023-12-20T07:19:14;94615.78;;;-1.13;100.00
15050;BME280;7622;42.724;23.250;2023-12-20T07:21:41;94614.56;;;-1.06;100.00
15050;BME280;7622;42.724;23.250;2023-12-20T07:24:08;94613.88;;;-0.93;100.00
15050;BME280;7622;42.724;23.250;2023-12-20T07:26:35;94592.53;;;-1.07;100.00
15050;BME280;7622;42.724;23.250;2023-12-20T07:29:03;94600.50;;;-1.13;100.00
15050;BME280;7622;42.724;23.250;2023-12-20T07:31:31;94597.91;;;-0.96;100.00
15050;BME280;7622;42.724;23.250;2023-12-20T07:33:58;94605.50;;;-0.95;100.00
15050;BME280;7622;42.724;23.250;2023-12-20T07:36:24;94604.72;;;-0.80;100.00
15050;BME280;7622;42.724;23.250;2023-12-20T07:38:51;94600.78;;;-0.85;100.00
15050;BME280;7622;42.724;23.250;2023-12-20T07:41:19;94609.94;;;-0.98;100.00
15050;BME280;7622;42.724;23.250;2023-12-20T07:43:50;94605.56;;;-0.96;100.00
15050;BME280;7622;42.724;23.250;2023-12-20T07:46:20;94604.16;;;-1.19;100.00
15050;BME280;7622;42.724;23.250;2023-12-20T07:48:49;94598.97;;;-1.00;100.00
15050;BME280;7622;42.724;23.250;2023-12-20T07:51:16;94580.06;;;-0.96;100.00
15050;BME280;7622;42.724;23.250;2023-12-20T07:53:42;94591.66;;;-0.73;100.00
15050;BME280;7622;42.724;23.250;2023-12-20T07:56:15;94580.31;;;-0.84;100.00
15050;BME280;7622;42.724;23.250;2023-12-20T07:58:42;94589.03;;;-0.72;100.00
15050;BME280;7622;42.724;23.250;2023-12-20T08:01:10;94590.25;;;-0.79;100.00
15050;BME280;7622;42.724;23.250;2023-12-20T08:03:37;94566.84;;;-0.70;100.00
15050;BME280;7622;42.724;23.250;2023-12-20T08:06:05;94586.69;;;-0.59;100.00
15050;BME280;7622;42.724;23.250;2023-12-20T08:08:32;94591.63;;;-0.56;100.00
15050;BME280;7622;42.724;23.250;2023-12-20T08:10:58;94585.59;;;-0.71;100.00
15050;BME280;7622;42.724;23.250;2023-12-20T08:13:25;94576.28;;;-0.72;100.00
15050;BME280;7622;42.724;23.250;2023-12-20T08:15:53;94579.03;;;-0.59;100.00
15050;BME280;7622;42.724;23.250;2023-12-20T08:18:21;94580.63;;;-0.74;100.00
15050;BME280;7622;42.724;23.250;2023-12-20T08:20:48;94574.63;;;-0.56;100.00
15050;BME280;7622;42.724;23.250;2023-12-20T08:23:16;94572.56;;;-0.49;100.00
15050;BME280;7622;42.724;23.250;2023-12-20T08:25:43;94573.06;;;-0.27;100.00
15050;BME280;7622;42.724;23.250;2023-12-20T08:28:09;94581.31;;;-0.06;100.00
15050;BME280;7622;42.724;23.250;2023-12-20T08:30:36;94570.94;;;-0.19;100.00
15050;BME280;7622;42.724;23.250;2023-12-20T08:33:03;94572.94;;;-0.08;100.00
15050;BME280;7622;42.724;23.250;2023-12-20T08:35:30;94557.22;;;0.29;100.00
15050;BME280;7622;42.724;23.250;2023-12-20T08:37:57;94546.38;;;0.26;100.00
15050;BME280;7622;42.724;23.250;2023-12-20T08:40:25;94550.00;;;0.22;100.00
15050;BME280;7622;42.724;23.250;2023-12-20T08:42:52;94544.06;;;0.21;100.00
15050;BME280;7622;42.724;23.250;2023-12-20T08:45:20;94546.16;;;0.45;100.00
15050;BME280;7622;42.724;23.250;2023-12-20T08:47:46;94542.78;;;0.44;100.00
15050;BME280;7622;42.724;23.250;2023-12-20T08:50:13;94533.94;;;0.50;100.00
15050;BME280;7622;42.724;23.250;2023-12-20T08:52:40;94535.25;;;0.57;100.00
15050;BME280;7622;42.724;23.250;2023-12-20T08:55:08;94527.53;;;0.43;100.00
15050;BME280;7622;42.724;23.250;2023-12-20T08:57:36;94530.59;;;0.63;100.00
15050;BME280;7622;42.724;23.250;2023-12-20T09:00:04;94517.94;;;0.62;100.00
15050;BME280;7622;42.724;23.250;2023-12-20T09:02:32;94516.50;;;0.72;100.00
15050;BME280;7622;42.724;23.250;2023-12-20T09:05:01;94503.53;;;0.75;100.00
15050;BME280;7622;42.724;23.250;2023-12-20T09:07:28;94504.06;;;0.66;100.00
15050;BME280;7622;42.724;23.250;2023-12-20T09:09:57;94490.13;;;0.86;100.00
15050;BME280;7622;42.724;23.250;2023-12-20T09:12:25;94488.13;;;0.91;100.00
15050;BME280;7622;42.724;23.250;2023-12-20T09:14:58;94473.22;;;0.83;100.00
15050;BME280;7622;42.724;23.250;2023-12-20T09:17:28;94475.91;;;0.82;100.00
15050;BME280;7622;42.724;23.250;2023-12-20T09:19:55;94474.63;;;0.89;100.00
15050;BME280;7622;42.724;23.250;2023-12-20T09:22:22;94468.47;;;1.19;100.00
15050;BME280;7622;42.724;23.250;2023-12-20T09:24:48;94462.00;;;1.14;100.00
15050;BME280;7622;42.724;23.250;2023-12-20T09:27:15;94445.66;;;1.31;100.00
15050;BME280;7622;42.724;23.250;2023-12-20T09:29:42;94450.22;;;1.11;100.00
15050;BME280;7622;42.724;23.250;2023-12-20T09:32:10;94431.25;;;1.15;100.00
15050;BME280;7622;42.724;23.250;2023-12-20T09:34:37;94432.16;;;1.14;100.00
15050;BME280;7622;42.724;23.250;2023-12-20T09:37:03;94440.81;;;1.12;100.00
15050;BME280;7622;42.724;23.250;2023-12-20T09:39:32;94415.00;;;1.02;100.00
15050;BME280;7622;42.724;23.250;2023-12-20T09:42:03;94423.16;;;1.36;100.00
15050;BME280;7622;42.724;23.250;2023-12-20T09:44:30;94424.25;;;1.32;100.00
15050;BME280;7622;42.724;23.250;2023-12-20T09:46:58;94414.56;;;1.37;100.00
15050;BME280;7622;42.724;23.250;2023-12-20T09:49:30;94406.47;;;1.30;100.00
15050;BME280;7622;42.724;23.250;2023-12-20T09:51:56;94405.31;;;1.48;100.00
15050;BME280;7622;42.724;23.250;2023-12-20T09:54:23;94412.00;;;1.51;100.00
15050;BME280;7622;42.724;23.250;2023-12-20T09:56:51;94397.28;;;1.40;100.00
15050;BME280;7622;42.724;23.250;2023-12-20T09:59:18;94397.59;;;1.36;100.00
15050;BME280;7622;42.724;23.250;2023-12-20T10:01:45;94388.28;;;1.21;100.00
15050;BME280;7622;42.724;23.250;2023-12-20T10:04:12;94391.63;;;0.94;100.00
15050;BME280;7622;42.724;23.250;2023-12-20T10:06:41;94399.81;;;0.99;100.00
15050;BME280;7622;42.724;23.250;2023-12-20T10:09:09;94390.19;;;1.31;100.00
15050;BME280;7622;42.724;23.250;2023-12-20T10:11:37;94358.19;;;1.65;100.00
15050;BME280;7622;42.724;23.250;2023-12-20T10:14:04;94383.84;;;1.90;100.00
15050;BME280;7622;42.724;23.250;2023-12-20T10:16:32;94371.41;;;2.24;100.00
15050;BME280;7622;42.724;23.250;2023-12-20T10:19:00;94370.41;;;2.26;100.00
15050;BME280;7622;42.724;23.250;2023-12-20T10:21:27;94359.75;;;2.45;100.00
15050;BME280;7622;42.724;23.250;2023-12-20T10:23:57;94362.56;;;2.91;100.00
15050;BME280;7622;42.724;23.250;2023-12-20T10:26:25;94351.50;;;3.27;100.00
15050;BME280;7622;42.724;23.250;2023-12-20T10:28:54;94347.19;;;3.99;100.00
15050;BME280;7622;42.724;23.250;2023-12-20T10:31:28;94347.16;;;4.34;100.00
15050;BME280;7622;42.724;23.250;2023-12-20T10:33:56;94341.38;;;4.88;100.00
15050;BME280;7622;42.724;23.250;2023-12-20T10:36:25;94332.59;;;5.01;100.00
15050;BME280;7622;42.724;23.250;2023-12-20T10:38:53;94329.19;;;5.66;100.00
15050;BME280;7622;42.724;23.250;2023-12-20T10:41:25;94308.88;;;5.41;100.00
15050;BME280;7622;42.724;23.250;2023-12-20T10:43:55;94315.19;;;6.12;100.00
15050;BME280;7622;42.724;23.250;2023-12-20T10:46:22;94303.38;;;6.30;100.00
15050;BME280;7622;42.724;23.250;2023-12-20T10:48:53;94283.63;;;7.10;100.00
15050;BME280;7622;42.724;23.250;2023-12-20T10:51:21;94295.41;;;7.53;100.00
15050;BME280;7622;42.724;23.250;2023-12-20T10:53:48;94296.22;;;7.54;100.00
15050;BME280;7622;42.724;23.250;2023-12-20T10:56:16;94297.03;;;7.64;100.00
15050;BME280;7622;42.724;23.250;2023-12-20T10:58:45;94300.56;;;7.63;100.00
15050;BME280;7622;42.724;23.250;2023-12-20T11:01:13;94297.53;;;7.29;100.00
15050;BME280;7622;42.724;23.250;2023-12-20T11:03:49;94290.53;;;7.60;100.00
15050;BME280;7622;42.724;23.250;2023-12-20T11:06:27;94289.13;;;7.36;100.00
15050;BME280;7622;42.724;23.250;2023-12-20T11:09:03;94279.19;;;7.41;100.00
15050;BME280;7622;42.724;23.250;2023-12-20T11:11:38;94270.00;;;7.87;100.00
15050;BME280;7622;42.724;23.250;2023-12-20T11:14:15;94267.53;;;7.95;100.00
15050;BME280;7622;42.724;23.250;2023-12-20T11:16:43;94255.41;;;7.76;100.00
15050;BME280;7622;42.724;23.250;2023-12-20T11:19:11;94253.78;;;7.95;100.00
15050;BME280;7622;42.724;23.250;2023-12-20T11:21:40;94248.63;;;7.66;100.00
15050;BME280;7622;42.724;23.250;2023-12-20T11:24:07;94248.47;;;7.77;100.00
15050;BME280;7622;42.724;23.250;2023-12-20T11:26:33;94238.16;;;7.67;100.00
15050;BME280;7622;42.724;23.250;2023-12-20T11:32:28;94225.09;;;7.78;100.00
15050;BME280;7622;42.724;23.250;2023-12-20T11:34:57;94238.19;;;8.23;100.00
15050;BME280;7622;42.724;23.250;2023-12-20T11:37:29;94218.84;;;8.47;100.00
15050;BME280;7622;42.724;23.250;2023-12-20T11:40:00;94209.06;;;8.31;100.00
15050;BME280;7622;42.724;23.250;2023-12-20T11:42:28;94204.88;;;8.11;100.00
15050;BME280;7622;42.724;23.250;2023-12-20T11:44:55;94126.41;;;7.83;100.00
15050;BME280;7622;42.724;23.250;2023-12-20T11:47:24;94184.97;;;8.30;100.00
15050;BME280;7622;42.724;23.250;2023-12-20T11:49:51;94175.59;;;8.20;100.00
15050;BME280;7622;42.724;23.250;2023-12-20T11:52:18;94181.69;;;8.28;100.00
15050;BME280;7622;42.724;23.250;2023-12-20T11:54:45;94178.88;;;8.22;100.00
15050;BME280;7622;42.724;23.250;2023-12-20T11:57:13;94172.31;;;8.27;100.00
15050;BME280;7622;42.724;23.250;2023-12-20T11:59:40;94169.16;;;7.87;100.00
15050;BME280;7622;42.724;23.250;2023-12-20T12:02:06;94175.31;;;7.28;100.00
15050;BME280;7622;42.724;23.250;2023-12-20T12:04:34;94153.69;;;7.10;100.00
15050;BME280;7622;42.724;23.250;2023-12-20T12:07:01;94159.13;;;7.17;100.00
15050;BME280;7622;42.724;23.250;2023-12-20T12:09:28;94155.19;;;7.22;100.00
15050;BME280;7622;42.724;23.250;2023-12-20T12:11:55;94117.56;;;6.91;100.00
15050;BME280;7622;42.724;23.250;2023-12-20T12:14:23;94129.22;;;6.95;100.00
15050;BME280;7622;42.724;23.250;2023-12-20T12:16:53;94134.69;;;7.11;100.00
15050;BME280;7622;42.724;23.250;2023-12-20T12:19:22;94133.19;;;7.18;100.00
15050;BME280;7622;42.724;23.250;2023-12-20T12:21:50;94126.78;;;7.22;100.00
15050;BME280;7622;42.724;23.250;2023-12-20T12:24:20;94127.03;;;7.00;100.00
15050;BME280;7622;42.724;23.250;2023-12-20T12:26:50;94107.56;;;6.48;100.00
15050;BME280;7622;42.724;23.250;2023-12-20T12:29:17;94124.22;;;6.44;100.00
15050;BME280;7622;42.724;23.250;2023-12-20T12:31:43;94119.31;;;6.21;100.00
15050;BME280;7622;42.724;23.250;2023-12-20T12:34:10;94118.84;;;5.86;100.00
15050;BME280;7622;42.724;23.250;2023-12-20T12:36:37;94132.63;;;5.34;100.00
15050;BME280;7622;42.724;23.250;2023-12-20T12:39:05;94122.78;;;5.18;100.00
15050;BME280;7622;42.724;23.250;2023-12-20T12:41:32;94125.19;;;4.99;100.00
15050;BME280;7622;42.724;23.250;2023-12-20T12:43:59;94117.03;;;4.94;100.00
15050;BME280;7622;42.724;23.250;2023-12-20T12:46:26;94113.25;;;4.77;100.00
15050;BME280;7622;42.724;23.250;2023-12-20T12:48:53;94119.69;;;4.71;100.00
15050;BME280;7622;42.724;23.250;2023-12-20T12:51:20;94119.81;;;4.70;100.00
15050;BME280;7622;42.724;23.250;2023-12-20T12:53:46;94105.88;;;4.41;100.00
15050;BME280;7622;42.724;23.250;2023-12-20T12:56:15;94097.44;;;4.39;100.00
15050;BME280;7622;42.724;23.250;2023-12-20T12:58:42;94102.84;;;4.24;100.00
15050;BME280;7622;42.724;23.250;2023-12-20T13:01:09;94115.00;;;4.11;100.00